createdAt,value
2019-01-14T15:55:14.596Z,5.92
2019-01-14T15:57:44.055Z,5.94
2019-01-14T16:00:15.139Z,6.15
2019-01-14T16:02:44.591Z,6.29
2019-01-14T16:05:14.520Z,6.41
2019-01-14T16:07:43.965Z,6.46
2019-01-14T16:10:16.371Z,6.66
2019-01-14T16:12:45.819Z,6.73
2019-01-14T16:15:15.662Z,6.86
2019-01-14T16:17:45.451Z,6.91
2019-01-14T16:20:16.821Z,6.96
2019-01-14T16:22:46.330Z,6.98
2019-01-14T16:25:15.737Z,7.05
2019-01-14T16:27:45.193Z,7.02
2019-01-14T16:30:19.611Z,7.02
2019-01-14T16:32:49.091Z,7.05
2019-01-14T16:35:18.515Z,7.09
2019-01-14T16:37:47.904Z,7.06
2019-01-14T16:40:18.330Z,6.92
2019-01-14T16:42:48.035Z,6.97
2019-01-14T16:45:22.878Z,6.98
2019-01-14T16:47:52.331Z,6.96
2019-01-14T16:50:21.797Z,6.89
2019-01-14T16:52:51.229Z,6.81
2019-01-14T16:55:32.005Z,6.82
2019-01-14T16:58:01.487Z,6.82
2019-01-14T17:00:31.002Z,6.78
2019-01-14T17:03:00.448Z,6.84
2019-01-14T17:05:29.896Z,6.68
2019-01-14T17:07:59.321Z,6.65
2019-01-14T17:10:28.843Z,6.63
2019-01-14T17:12:58.302Z,6.62
2019-01-14T17:15:27.733Z,6.55
2019-01-14T17:17:57.188Z,6.48
2019-01-14T17:20:26.611Z,6.46
2019-01-14T17:22:56.016Z,6.45
2019-01-14T17:25:25.517Z,6.47
2019-01-14T17:27:55.163Z,6.53
2019-01-14T17:30:24.605Z,6.44
2019-01-14T17:32:54.035Z,6.44
2019-01-14T17:35:23.502Z,6.36
2019-01-14T17:37:52.990Z,6.39
2019-01-14T17:40:22.396Z,6.38
2019-01-14T17:42:51.810Z,6.40
2019-01-14T17:45:21.363Z,6.39
2019-01-14T17:47:50.743Z,6.37
2019-01-14T17:50:20.790Z,6.30
2019-01-14T17:52:50.281Z,6.29
2019-01-14T17:55:19.799Z,6.25
2019-01-14T17:57:49.380Z,6.25
2019-01-14T18:00:20.879Z,6.43
2019-01-14T18:02:50.347Z,6.35
2019-01-14T18:05:19.826Z,6.35
2019-01-14T18:07:49.334Z,6.40
2019-01-14T18:10:19.397Z,6.34
2019-01-14T18:12:48.861Z,6.39
2019-01-14T18:15:18.397Z,6.34
2019-01-14T18:17:47.898Z,6.33
2019-01-14T18:20:19.077Z,6.29
2019-01-14T18:22:48.499Z,6.31
2019-01-14T18:25:18.057Z,6.35
2019-01-14T18:27:47.491Z,6.34
2019-01-14T18:30:18.732Z,6.31
2019-01-14T18:32:48.346Z,6.38
2019-01-14T18:35:17.780Z,6.37
2019-01-14T18:37:47.195Z,6.37
2019-01-14T18:40:18.931Z,6.38
2019-01-14T18:42:48.651Z,6.40
2019-01-14T18:45:19.699Z,6.55
2019-01-14T18:47:49.507Z,6.54
2019-01-14T18:50:21.185Z,6.50
2019-01-14T18:52:50.639Z,6.53
2019-01-14T18:55:20.127Z,6.56
2019-01-14T18:57:50.110Z,6.58
2019-01-14T19:00:23.818Z,6.54
2019-01-14T19:02:53.528Z,6.46
2019-01-14T19:05:22.893Z,6.44
2019-01-14T19:07:52.304Z,6.53
2019-01-14T19:10:21.840Z,6.42
2019-01-14T19:12:51.414Z,6.38
2019-01-14T19:15:21.736Z,6.20
2019-01-14T19:17:52.275Z,6.30
2019-01-14T19:20:29.212Z,6.27
2019-01-14T19:22:58.666Z,6.25
2019-01-14T19:25:28.390Z,6.31
2019-01-14T19:27:57.858Z,6.24
2019-01-14T19:30:27.303Z,6.22
2019-01-14T19:32:56.805Z,6.26
2019-01-14T19:35:26.347Z,6.36
2019-01-14T19:37:55.810Z,6.40
2019-01-14T19:40:25.359Z,6.49
2019-01-14T19:42:54.840Z,6.40
2019-01-14T19:45:24.372Z,6.38
2019-01-14T19:47:53.811Z,6.37
2019-01-14T19:50:24.728Z,6.39
2019-01-14T19:52:55.405Z,6.35
2019-01-14T19:55:25.062Z,6.30
2019-01-14T19:57:54.589Z,6.28
2019-01-14T20:00:26.373Z,6.32
2019-01-14T20:02:55.836Z,6.26
2019-01-14T20:05:25.298Z,6.22
2019-01-14T20:07:55.243Z,6.27
2019-01-14T20:10:24.730Z,6.18
2019-01-14T20:12:54.793Z,6.14
2019-01-14T20:15:24.272Z,6.14
2019-01-14T20:17:53.763Z,6.15
2019-01-14T20:20:23.863Z,6.26
2019-01-14T20:22:53.305Z,6.23
2019-01-14T20:25:22.910Z,6.11
2019-01-14T20:27:52.350Z,6.10
2019-01-14T20:30:23.427Z,6.06
2019-01-14T20:32:53.046Z,5.97
2019-01-14T20:35:22.494Z,6.02
2019-01-14T20:37:52.009Z,5.96
2019-01-14T20:40:21.470Z,5.90
2019-01-14T20:42:50.922Z,5.90
2019-01-14T20:45:20.489Z,5.87
2019-01-14T20:47:50.131Z,5.78
2019-01-14T20:50:20.535Z,5.83
2019-01-14T20:52:49.949Z,5.75
2019-01-14T20:55:19.425Z,5.72
2019-01-14T20:57:48.900Z,5.68
2019-01-14T21:00:24.101Z,5.62
2019-01-14T21:02:53.587Z,5.56
2019-01-14T21:05:24.029Z,5.48
2019-01-14T21:07:53.429Z,5.49
2019-01-14T21:10:22.826Z,5.52
2019-01-14T21:12:52.373Z,5.48
2019-01-14T21:15:21.872Z,5.48
2019-01-14T21:18:35.641Z,5.41
2019-01-14T21:21:47.507Z,5.32
2019-01-14T21:24:15.211Z,5.30
2019-01-14T21:26:51.678Z,5.29
2019-01-14T21:29:26.059Z,5.28
2019-01-14T21:31:52.230Z,5.34
2019-01-14T21:34:30.123Z,5.29
2019-01-14T21:37:18.036Z,5.29
2019-01-14T21:40:05.749Z,5.28
2019-01-14T21:42:36.950Z,5.25
2019-01-14T21:45:23.456Z,5.26
2019-01-14T21:47:51.141Z,5.26
2019-01-14T21:50:18.882Z,5.20
2019-01-14T21:52:48.531Z,5.10
2019-01-14T21:55:20.128Z,5.04
2019-01-14T21:57:49.522Z,5.01
2019-01-14T22:00:20.807Z,4.97
2019-01-14T22:02:50.196Z,4.85
2019-01-14T22:05:19.721Z,4.90
2019-01-14T22:07:49.319Z,4.83
2019-01-14T22:10:23.589Z,4.75
2019-01-14T22:12:52.975Z,4.68
2019-01-14T22:16:22.330Z,4.66
2019-01-14T22:19:36.546Z,4.62
2019-01-14T22:22:51.474Z,4.55
2019-01-14T22:25:56.906Z,4.54
2019-01-14T22:29:02.680Z,4.33
2019-01-14T22:32:15.066Z,4.34
2019-01-14T22:34:44.985Z,4.31
2019-01-14T22:37:14.456Z,4.19
2019-01-14T22:39:44.027Z,4.07
2019-01-14T22:42:13.477Z,4.03
2019-01-14T22:44:43.004Z,4.11
2019-01-14T22:47:12.479Z,4.07
2019-01-14T22:49:41.895Z,4.10
2019-01-14T22:52:11.356Z,4.08
2019-01-14T22:54:40.840Z,4.04
2019-01-14T22:57:10.311Z,4.03
2019-01-14T22:59:39.765Z,3.96
2019-01-14T23:02:09.437Z,3.85
2019-01-14T23:04:38.812Z,3.94
2019-01-14T23:07:08.475Z,3.99
2019-01-14T23:09:37.946Z,4.00
2019-01-14T23:12:07.388Z,3.87
2019-01-14T23:14:36.815Z,3.82
2019-01-14T23:17:06.283Z,3.76
2019-01-14T23:19:35.736Z,3.82
2019-01-14T23:22:05.139Z,3.66
2019-01-14T23:24:34.664Z,3.63
2019-01-14T23:27:04.063Z,3.73
2019-01-14T23:29:33.519Z,3.73
2019-01-14T23:32:02.997Z,3.71
2019-01-14T23:34:32.449Z,3.63
2019-01-14T23:37:01.826Z,3.63
2019-01-14T23:39:31.248Z,3.63
2019-01-14T23:42:00.796Z,3.66
2019-01-14T23:44:30.184Z,3.58
2019-01-14T23:46:59.697Z,3.50
2019-01-14T23:49:29.180Z,3.58
2019-01-14T23:51:58.547Z,3.62
2019-01-14T23:54:27.993Z,3.56
2019-01-14T23:56:57.474Z,3.44
2019-01-14T23:59:26.914Z,3.54
